createdAt,value
2018-03-06T00:00:14.597Z,3.56
2018-03-06T00:01:14.591Z,3.40
2018-03-06T00:02:14.585Z,3.56
2018-03-06T00:03:14.582Z,3.48
2018-03-06T00:04:14.574Z,3.49
2018-03-06T00:05:14.569Z,3.48
2018-03-06T00:06:14.562Z,3.46
2018-03-06T00:07:14.556Z,3.46
2018-03-06T00:08:14.551Z,3.40
2018-03-06T00:09:14.544Z,3.37
2018-03-06T00:10:14.540Z,3.33
2018-03-06T00:11:14.535Z,3.24
2018-03-06T00:12:14.530Z,3.30
2018-03-06T00:13:14.524Z,3.29
2018-03-06T00:14:14.518Z,3.31
2018-03-06T00:15:14.511Z,3.36
2018-03-06T00:16:14.507Z,3.45
2018-03-06T00:17:14.499Z,3.46
2018-03-06T00:18:14.495Z,3.36
2018-03-06T00:19:14.489Z,3.48
2018-03-06T00:20:14.483Z,3.49
2018-03-06T00:21:14.478Z,3.45
2018-03-06T00:22:14.472Z,3.41
2018-03-06T00:23:14.465Z,3.45
2018-03-06T00:24:14.460Z,3.36
2018-03-06T00:25:14.453Z,3.55
2018-03-06T00:26:14.448Z,3.56
2018-03-06T00:27:14.445Z,3.40
2018-03-06T00:28:14.436Z,3.33
2018-03-06T00:29:14.432Z,3.15
2018-03-06T00:30:14.425Z,3.22
2018-03-06T00:31:14.420Z,3.13
2018-03-06T00:32:14.414Z,3.18
2018-03-06T00:33:14.407Z,3.30
2018-03-06T00:34:14.404Z,3.41
2018-03-06T00:35:14.398Z,3.31
2018-03-06T00:36:14.391Z,3.33
2018-03-06T00:37:14.384Z,3.30
2018-03-06T00:38:14.380Z,3.30
2018-03-06T00:39:14.373Z,3.33
2018-03-06T00:40:14.368Z,3.26
2018-03-06T00:41:14.360Z,3.37
2018-03-06T00:42:14.356Z,3.26
2018-03-06T00:43:14.350Z,3.33
2018-03-06T00:44:14.344Z,3.30
2018-03-06T00:45:14.338Z,3.34
2018-03-06T00:46:14.333Z,3.27
2018-03-06T00:47:14.328Z,3.24
2018-03-06T00:48:14.323Z,3.26
2018-03-06T00:49:14.315Z,3.24
2018-03-06T00:50:14.310Z,3.09
2018-03-06T00:51:14.305Z,3.12
2018-03-06T00:52:14.299Z,3.11
2018-03-06T00:53:14.293Z,3.08
2018-03-06T00:54:14.287Z,3.09
2018-03-06T00:55:14.283Z,3.09
2018-03-06T00:56:14.274Z,2.87
2018-03-06T00:57:14.269Z,2.90
2018-03-06T00:58:14.265Z,2.91
2018-03-06T00:59:14.258Z,2.87
2018-03-06T01:00:14.251Z,2.76
2018-03-06T01:01:14.249Z,2.79
2018-03-06T01:02:14.240Z,2.75
2018-03-06T01:03:14.235Z,2.88
2018-03-06T01:04:14.228Z,2.69
2018-03-06T01:05:14.223Z,2.76
2018-03-06T01:06:14.216Z,2.75
2018-03-06T01:07:14.211Z,2.75
2018-03-06T01:08:14.209Z,2.79
2018-03-06T01:09:14.199Z,2.80
2018-03-06T01:10:14.192Z,2.77
2018-03-06T01:11:14.186Z,2.83
2018-03-06T01:12:14.180Z,2.82
2018-03-06T01:13:14.173Z,2.77
2018-03-06T01:14:14.168Z,2.70
2018-03-06T01:15:14.163Z,2.75
2018-03-06T01:16:14.154Z,2.73
2018-03-06T01:17:14.150Z,2.77
2018-03-06T01:18:14.144Z,2.77
2018-03-06T01:19:14.138Z,2.77
2018-03-06T01:20:14.131Z,2.91
2018-03-06T01:21:14.125Z,2.90
2018-03-06T01:22:14.119Z,2.95
2018-03-06T01:23:14.116Z,2.93
2018-03-06T01:24:14.106Z,2.80
2018-03-06T01:25:14.100Z,2.88
2018-03-06T01:26:14.096Z,2.76
2018-03-06T01:27:14.090Z,2.75
2018-03-06T01:28:14.082Z,2.73
2018-03-06T01:29:14.076Z,2.70
2018-03-06T01:30:14.072Z,2.72
2018-03-06T01:31:14.065Z,2.70
2018-03-06T01:32:14.059Z,2.82
2018-03-06T01:33:14.053Z,2.97
2018-03-06T01:34:14.048Z,3.08
2018-03-06T01:35:14.041Z,3.11
2018-03-06T01:36:14.034Z,3.12
2018-03-06T01:37:14.030Z,3.09
2018-03-06T01:38:14.022Z,3.08
2018-03-06T01:39:14.023Z,3.16
2018-03-06T01:40:14.011Z,3.13
2018-03-06T01:41:14.005Z,3.18
2018-03-06T01:42:14.000Z,3.13
2018-03-06T01:43:13.994Z,3.19
2018-03-06T01:44:14.189Z,3.09
2018-03-06T01:45:13.980Z,3.11
2018-03-06T01:46:13.975Z,3.01
2018-03-06T01:47:13.970Z,2.95
2018-03-06T01:48:13.962Z,2.94
2018-03-06T01:49:13.957Z,2.97
2018-03-06T01:50:13.952Z,2.97
2018-03-06T01:51:13.946Z,3.00
2018-03-06T01:52:13.939Z,2.97
2018-03-06T01:53:13.934Z,3.01
2018-03-06T01:54:13.928Z,3.08
2018-03-06T01:55:13.922Z,3.01
2018-03-06T01:56:13.916Z,2.97
2018-03-06T01:57:13.909Z,3.06
2018-03-06T01:58:13.905Z,2.90
2018-03-06T01:59:13.901Z,2.88
2018-03-06T02:00:13.891Z,2.83
2018-03-06T02:01:13.886Z,2.95
2018-03-06T02:02:13.881Z,2.88
2018-03-06T02:03:13.875Z,2.97
2018-03-06T02:04:13.868Z,2.98
2018-03-06T02:05:13.863Z,3.13
2018-03-06T02:06:13.858Z,3.03
2018-03-06T02:07:13.852Z,3.16
2018-03-06T02:08:13.846Z,3.19
2018-03-06T02:09:13.840Z,3.31
2018-03-06T02:10:13.836Z,3.29
2018-03-06T02:11:13.828Z,3.13
2018-03-06T02:12:13.822Z,3.03
2018-03-06T02:13:13.816Z,3.00
2018-03-06T02:14:13.810Z,2.88
2018-03-06T02:15:13.806Z,2.90
2018-03-06T02:16:13.799Z,2.95
2018-03-06T02:17:13.795Z,2.98
2018-03-06T02:18:13.787Z,3.12
2018-03-06T02:19:13.781Z,3.13
2018-03-06T02:20:13.775Z,3.08
2018-03-06T02:21:13.769Z,2.91
2018-03-06T02:22:13.763Z,2.83
2018-03-06T02:23:13.758Z,2.87
2018-03-06T02:24:13.750Z,2.98
2018-03-06T02:25:13.745Z,2.83
2018-03-06T02:26:13.739Z,2.72
2018-03-06T02:27:13.733Z,2.75
2018-03-06T02:28:13.728Z,2.75
2018-03-06T02:29:13.721Z,2.75
2018-03-06T02:30:13.717Z,2.91
2018-03-06T02:31:13.709Z,2.83
2018-03-06T02:32:13.703Z,2.95
2018-03-06T02:33:13.697Z,3.09
2018-03-06T02:34:13.693Z,3.09
2018-03-06T02:35:13.686Z,3.11
2018-03-06T02:36:13.679Z,3.06
2018-03-06T02:37:13.674Z,3.09
2018-03-06T02:38:13.668Z,3.22
2018-03-06T02:39:13.666Z,3.24
2018-03-06T02:40:13.655Z,3.11
2018-03-06T02:41:13.648Z,3.06
2018-03-06T02:42:13.644Z,3.05
2018-03-06T02:43:13.641Z,2.93
2018-03-06T02:44:13.632Z,2.82
2018-03-06T02:45:13.626Z,2.79
2018-03-06T02:46:13.621Z,2.73
2018-03-06T02:47:13.659Z,2.69
2018-03-06T02:48:13.608Z,2.72
2018-03-06T02:49:13.602Z,2.72
2018-03-06T02:50:13.595Z,2.65
2018-03-06T02:51:13.592Z,2.68
2018-03-06T02:52:13.584Z,2.76
2018-03-06T02:53:13.577Z,2.62
2018-03-06T02:54:13.573Z,2.70
2018-03-06T02:55:13.567Z,2.58
2018-03-06T02:56:13.560Z,2.55
2018-03-06T02:57:13.553Z,2.57
2018-03-06T02:58:13.548Z,2.62
2018-03-06T02:59:13.542Z,2.61
2018-03-06T03:00:13.536Z,2.57
2018-03-06T03:01:13.530Z,2.59
2018-03-06T03:02:13.524Z,2.54
2018-03-06T03:03:13.517Z,2.41
2018-03-06T03:04:13.512Z,2.44
2018-03-06T03:05:13.505Z,2.43
2018-03-06T03:06:13.499Z,2.50
2018-03-06T03:07:13.494Z,2.43
2018-03-06T03:08:13.489Z,2.59
2018-03-06T03:09:13.484Z,2.55
2018-03-06T03:10:13.473Z,2.52
2018-03-06T03:11:13.469Z,2.52
2018-03-06T03:12:13.461Z,2.59
2018-03-06T03:13:13.456Z,2.61
2018-03-06T03:14:13.450Z,2.51
2018-03-06T03:15:13.444Z,2.62
2018-03-06T03:16:13.437Z,2.64
2018-03-06T03:17:13.432Z,2.75
2018-03-06T03:18:13.423Z,2.75
2018-03-06T03:19:13.419Z,2.69
2018-03-06T03:20:13.411Z,2.72
2018-03-06T03:21:13.406Z,2.88
2018-03-06T03:22:13.401Z,2.87
2018-03-06T03:23:13.396Z,2.82
2018-03-06T03:24:13.387Z,2.76
2018-03-06T03:25:13.383Z,2.75
2018-03-06T03:26:13.375Z,2.75
2018-03-06T03:27:13.370Z,2.72
2018-03-06T03:28:13.369Z,2.79
2018-03-06T03:29:13.356Z,2.76
2018-03-06T03:30:13.352Z,2.88
2018-03-06T03:31:13.351Z,2.90
2018-03-06T03:32:13.339Z,2.91
2018-03-06T03:33:13.332Z,2.93
2018-03-06T03:34:13.328Z,2.94
2018-03-06T03:35:13.322Z,2.98
2018-03-06T03:36:13.316Z,3.13
2018-03-06T03:37:13.308Z,3.09
2018-03-06T03:38:13.302Z,3.13
2018-03-06T03:39:13.297Z,3.12
2018-03-06T03:40:13.290Z,3.12
2018-03-06T03:41:13.287Z,3.12
2018-03-06T03:42:13.278Z,3.09
2018-03-06T03:43:13.273Z,2.97
2018-03-06T03:44:14.470Z,2.95
2018-03-06T03:45:13.261Z,2.98
2018-03-06T03:46:13.257Z,3.05
2018-03-06T03:47:13.251Z,3.09
2018-03-06T03:48:13.244Z,3.16
2018-03-06T03:49:13.237Z,3.09
2018-03-06T03:50:13.231Z,3.15
2018-03-06T03:51:13.226Z,3.15
2018-03-06T03:52:13.223Z,3.15
2018-03-06T03:53:13.420Z,3.11
2018-03-06T03:54:13.209Z,3.15
2018-03-06T03:55:13.202Z,3.21
2018-03-06T03:56:13.196Z,3.12
2018-03-06T03:57:13.192Z,3.26
2018-03-06T03:58:13.184Z,3.27
2018-03-06T03:59:13.183Z,3.30
2018-03-06T04:00:13.173Z,3.24
2018-03-06T04:01:13.168Z,3.16
2018-03-06T04:02:13.163Z,3.27
2018-03-06T04:03:13.156Z,3.22
2018-03-06T04:04:13.154Z,3.09
2018-03-06T04:05:13.144Z,3.13
2018-03-06T04:06:13.139Z,3.08
2018-03-06T04:07:13.132Z,2.98
2018-03-06T04:08:13.126Z,2.95
2018-03-06T04:09:13.142Z,3.08
2018-03-06T04:10:13.115Z,3.00
2018-03-06T04:11:13.109Z,3.08
2018-03-06T04:12:13.104Z,3.15
2018-03-06T04:13:13.096Z,3.06
2018-03-06T04:14:13.091Z,3.03
2018-03-06T04:15:13.085Z,3.08
2018-03-06T04:16:13.079Z,3.12
2018-03-06T04:17:13.100Z,3.06
2018-03-06T04:18:25.803Z,3.09
2018-03-06T04:19:13.062Z,3.06
2018-03-06T04:20:13.056Z,3.08
2018-03-06T04:21:13.050Z,3.03
2018-03-06T04:22:13.044Z,3.03
2018-03-06T04:23:13.038Z,3.11
2018-03-06T04:24:13.032Z,3.09
2018-03-06T04:25:16.059Z,3.06
2018-03-06T04:26:13.022Z,3.11
2018-03-06T04:27:13.016Z,2.98
2018-03-06T04:28:13.008Z,3.11
2018-03-06T04:29:13.004Z,3.11
2018-03-06T04:30:12.997Z,3.06
2018-03-06T04:31:12.991Z,2.97
2018-03-06T04:32:12.985Z,3.06
2018-03-06T04:33:12.979Z,3.03
2018-03-06T04:34:12.974Z,3.06
2018-03-06T04:35:12.969Z,3.08
2018-03-06T04:36:46.172Z,3.12
2018-03-06T04:37:12.957Z,3.12
2018-03-06T04:38:12.952Z,3.15
2018-03-06T04:39:12.946Z,3.19
2018-03-06T04:40:12.939Z,3.21
2018-03-06T04:41:12.934Z,3.11
2018-03-06T04:42:12.929Z,3.11
2018-03-06T04:43:12.922Z,3.12
2018-03-06T04:44:15.948Z,3.12
2018-03-06T04:45:12.911Z,3.16
2018-03-06T04:46:12.958Z,3.11
2018-03-06T04:47:12.900Z,3.06
2018-03-06T04:48:12.894Z,3.08
2018-03-06T04:49:12.887Z,3.03
2018-03-06T04:50:12.883Z,3.08
2018-03-06T04:51:12.878Z,2.97
2018-03-06T04:52:12.870Z,2.98
2018-03-06T04:53:12.864Z,2.97
2018-03-06T04:54:12.858Z,2.90
2018-03-06T04:55:38.525Z,2.90
2018-03-06T04:56:12.847Z,2.97
2018-03-06T04:57:12.841Z,2.98
2018-03-06T04:58:12.835Z,3.16
2018-03-06T04:59:12.829Z,3.12
2018-03-06T05:00:12.825Z,3.19
2018-03-06T05:01:12.818Z,3.18
2018-03-06T05:02:12.813Z,3.21
2018-03-06T05:03:12.807Z,3.09
2018-03-06T05:04:12.802Z,3.13
2018-03-06T05:05:12.794Z,3.12
2018-03-06T05:06:12.788Z,3.11
2018-03-06T05:07:12.782Z,3.12
2018-03-06T05:08:12.777Z,3.08
2018-03-06T05:09:12.770Z,3.08
2018-03-06T05:10:12.765Z,3.24
2018-03-06T05:11:12.760Z,3.31
2018-03-06T05:12:12.753Z,3.37
2018-03-06T05:13:12.747Z,3.27
2018-03-06T05:14:12.740Z,3.26
2018-03-06T05:15:12.736Z,3.22
2018-03-06T05:16:12.729Z,3.19
2018-03-06T05:17:12.722Z,3.22
2018-03-06T05:18:12.719Z,3.29
2018-03-06T05:19:12.713Z,3.34
2018-03-06T05:20:12.706Z,3.33
2018-03-06T05:21:12.700Z,3.37
2018-03-06T05:22:12.696Z,3.37
2018-03-06T05:23:12.690Z,3.27
2018-03-06T05:24:12.683Z,3.31
2018-03-06T05:25:12.677Z,3.30
2018-03-06T05:26:12.671Z,3.31
2018-03-06T05:27:12.666Z,3.31
2018-03-06T05:28:12.660Z,3.34
2018-03-06T05:29:12.653Z,3.37
2018-03-06T05:30:12.648Z,3.30
2018-03-06T05:31:12.643Z,3.30
2018-03-06T05:32:12.636Z,3.45
2018-03-06T05:33:12.630Z,3.52
2018-03-06T05:34:12.625Z,3.43
2018-03-06T05:35:12.621Z,3.33
2018-03-06T05:36:12.613Z,3.33
2018-03-06T05:37:12.606Z,3.29
2018-03-06T05:38:12.602Z,3.22
2018-03-06T05:39:12.660Z,3.18
2018-03-06T05:40:12.590Z,3.21
2018-03-06T05:41:12.585Z,3.11
2018-03-06T05:42:12.578Z,3.12
2018-03-06T05:43:12.573Z,3.00
2018-03-06T05:44:12.567Z,2.93
2018-03-06T05:45:12.562Z,2.91
2018-03-06T05:46:12.555Z,2.88
2018-03-06T05:47:12.549Z,2.85
2018-03-06T05:48:12.543Z,2.88
2018-03-06T05:49:12.537Z,2.72
2018-03-06T05:50:12.576Z,2.68
2018-03-06T05:51:12.525Z,2.73
2018-03-06T05:52:12.519Z,2.59
2018-03-06T05:53:12.513Z,2.59
2018-03-06T05:54:12.507Z,2.57
2018-03-06T05:55:12.501Z,2.58
2018-03-06T05:56:12.496Z,2.54
2018-03-06T05:57:12.488Z,2.52
2018-03-06T05:58:12.483Z,2.55
2018-03-06T05:59:12.477Z,2.52
2018-03-06T06:00:12.470Z,2.54
2018-03-06T06:01:12.464Z,2.52
2018-03-06T06:02:12.458Z,2.52
2018-03-06T06:03:12.453Z,2.46
2018-03-06T06:04:12.446Z,2.55
2018-03-06T06:05:12.439Z,2.52
2018-03-06T06:06:12.433Z,2.58
2018-03-06T06:07:12.429Z,2.55
2018-03-06T06:08:12.421Z,2.68
2018-03-06T06:09:12.415Z,2.69
2018-03-06T06:10:12.409Z,2.75
2018-03-06T06:11:12.402Z,2.75
2018-03-06T06:12:12.396Z,2.76
2018-03-06T06:13:12.390Z,2.73
2018-03-06T06:14:12.384Z,2.76
2018-03-06T06:15:12.379Z,2.82
2018-03-06T06:16:12.371Z,2.76
2018-03-06T06:17:12.365Z,2.88
2018-03-06T06:18:12.364Z,2.75
2018-03-06T06:19:12.355Z,2.73
2018-03-06T06:20:12.347Z,2.69
2018-03-06T06:21:12.340Z,2.68
2018-03-06T06:22:12.335Z,2.57
2018-03-06T06:23:12.329Z,2.58
2018-03-06T06:24:12.322Z,2.61
2018-03-06T06:25:12.317Z,2.57
2018-03-06T06:26:12.311Z,2.69
2018-03-06T06:27:12.305Z,2.68
2018-03-06T06:28:12.298Z,2.70
2018-03-06T06:29:12.291Z,2.70
2018-03-06T06:30:12.286Z,2.75
2018-03-06T06:31:12.279Z,2.65
2018-03-06T06:32:12.273Z,2.77
2018-03-06T06:33:12.266Z,2.73
2018-03-06T06:34:12.261Z,2.82
2018-03-06T06:35:12.258Z,2.80
2018-03-06T06:36:12.248Z,2.85
2018-03-06T06:37:12.243Z,2.87
2018-03-06T06:38:12.237Z,2.83
2018-03-06T06:39:12.237Z,2.90
2018-03-06T06:40:12.224Z,2.95
2018-03-06T06:41:12.219Z,2.83
2018-03-06T06:42:12.214Z,2.83
2018-03-06T06:43:12.207Z,2.95
2018-03-06T06:44:12.200Z,2.90
2018-03-06T06:45:12.195Z,2.91
2018-03-06T06:46:12.190Z,3.05
2018-03-06T06:47:12.184Z,3.08
2018-03-06T06:48:12.177Z,3.12
2018-03-06T06:49:12.172Z,3.18
2018-03-06T06:50:12.166Z,3.24
2018-03-06T06:51:12.161Z,3.34
2018-03-06T06:52:12.153Z,3.24
2018-03-06T06:53:12.147Z,3.30
2018-03-06T06:54:12.143Z,3.13
2018-03-06T06:55:12.137Z,3.22
2018-03-06T06:56:12.131Z,3.11
2018-03-06T06:57:12.125Z,3.16
2018-03-06T06:58:12.120Z,3.13
2018-03-06T06:59:12.114Z,3.16
2018-03-06T07:00:12.107Z,3.01
2018-03-06T07:01:12.102Z,3.13
2018-03-06T07:02:12.097Z,3.09
2018-03-06T07:03:12.092Z,3.29
2018-03-06T07:04:12.084Z,3.33
2018-03-06T07:05:12.082Z,3.33
2018-03-06T07:06:12.075Z,3.24
2018-03-06T07:07:12.069Z,3.40
2018-03-06T07:08:12.062Z,3.56
2018-03-06T07:09:12.056Z,3.52
2018-03-06T07:10:12.052Z,3.61
2018-03-06T07:11:12.048Z,3.70
2018-03-06T07:12:12.043Z,3.70
2018-03-06T07:13:12.049Z,3.82
2018-03-06T07:14:12.030Z,3.81
2018-03-06T07:15:12.024Z,3.82
2018-03-06T07:16:12.018Z,3.71
2018-03-06T07:17:12.015Z,3.85
2018-03-06T07:18:12.008Z,3.92
2018-03-06T07:19:12.004Z,4.07
2018-03-06T07:20:11.997Z,4.14
2018-03-06T07:21:11.994Z,4.31
2018-03-06T07:22:11.988Z,4.30
2018-03-06T07:23:11.982Z,4.31
2018-03-06T07:24:11.978Z,4.32
2018-03-06T07:25:11.973Z,4.42
2018-03-06T07:26:11.969Z,4.43
2018-03-06T07:27:11.964Z,4.52
2018-03-06T07:28:11.959Z,4.58
2018-03-06T07:29:11.953Z,4.67
2018-03-06T07:30:11.950Z,4.74
2018-03-06T07:31:11.950Z,4.74
2018-03-06T07:32:11.941Z,4.78
2018-03-06T07:33:11.936Z,4.64
2018-03-06T07:34:11.933Z,4.58
2018-03-06T07:35:11.930Z,4.60
2018-03-06T07:36:11.926Z,4.60
2018-03-06T07:37:11.920Z,4.71
2018-03-06T07:38:11.916Z,4.68
2018-03-06T07:39:11.911Z,4.82
2018-03-06T07:40:11.905Z,4.86
2018-03-06T07:41:11.902Z,4.92
2018-03-06T07:42:11.900Z,5.02
2018-03-06T07:43:11.894Z,5.01
2018-03-06T07:44:11.892Z,5.04
2018-03-06T07:45:11.887Z,4.83
2018-03-06T07:46:11.888Z,4.86
2018-03-06T07:47:11.878Z,4.78
2018-03-06T07:48:11.874Z,4.84
2018-03-06T07:49:11.870Z,4.78
2018-03-06T07:50:11.866Z,4.78
2018-03-06T07:51:11.869Z,4.82
2018-03-06T07:52:11.858Z,4.79
2018-03-06T07:53:11.854Z,4.87
2018-03-06T07:54:11.850Z,4.94
2018-03-06T07:55:11.846Z,4.84
2018-03-06T07:56:11.845Z,4.90
2018-03-06T07:57:11.865Z,4.84
2018-03-06T07:58:11.834Z,4.92
2018-03-06T07:59:11.830Z,4.86
2018-03-06T08:00:11.825Z,4.86
2018-03-06T08:01:11.822Z,4.83
2018-03-06T08:02:11.819Z,4.92
2018-03-06T08:03:11.814Z,5.04
2018-03-06T08:04:11.809Z,5.18
2018-03-06T08:05:11.812Z,5.20
2018-03-06T08:06:11.802Z,5.23
2018-03-06T08:07:11.805Z,5.16
2018-03-06T08:08:11.797Z,5.20
2018-03-06T08:09:11.791Z,5.20
2018-03-06T08:10:11.789Z,5.05
2018-03-06T08:11:11.784Z,5.04
2018-03-06T08:12:11.779Z,4.86
2018-03-06T08:13:11.776Z,4.98
2018-03-06T08:14:11.771Z,5.07
2018-03-06T08:15:11.769Z,5.19
2018-03-06T08:16:11.763Z,5.19
2018-03-06T08:17:11.762Z,5.10
2018-03-06T08:18:11.757Z,5.00
2018-03-06T08:19:11.753Z,4.98
2018-03-06T08:20:11.748Z,5.01
2018-03-06T08:21:11.745Z,5.00
2018-03-06T08:22:11.741Z,5.01
2018-03-06T08:23:11.738Z,4.98
2018-03-06T08:24:11.733Z,5.15
2018-03-06T08:25:11.981Z,5.23
2018-03-06T08:26:11.726Z,5.26
2018-03-06T08:27:11.723Z,5.36
2018-03-06T08:28:11.718Z,5.44
2018-03-06T08:29:11.714Z,5.54
2018-03-06T08:30:11.712Z,5.67
2018-03-06T08:31:11.708Z,5.83
2018-03-06T08:32:11.704Z,5.94
2018-03-06T08:33:11.705Z,6.17
2018-03-06T08:34:11.702Z,6.20
2018-03-06T08:35:11.696Z,6.26
2018-03-06T08:36:11.691Z,6.19
2018-03-06T08:37:11.687Z,6.06
2018-03-06T08:38:11.685Z,6.05
2018-03-06T08:39:11.682Z,6.01
2018-03-06T08:40:11.678Z,6.02
2018-03-06T08:41:11.676Z,5.97
2018-03-06T08:42:11.674Z,5.88
2018-03-06T08:43:11.670Z,5.88
2018-03-06T08:44:11.666Z,5.83
2018-03-06T08:45:11.664Z,5.90
2018-03-06T08:46:11.662Z,6.01
2018-03-06T08:47:11.660Z,5.83
2018-03-06T08:48:11.655Z,5.79
2018-03-06T08:49:11.652Z,5.74
2018-03-06T08:50:11.650Z,5.73
2018-03-06T08:51:11.648Z,5.83
2018-03-06T08:52:11.644Z,5.83
2018-03-06T08:53:11.641Z,5.76
2018-03-06T08:54:11.641Z,5.73
2018-03-06T08:55:11.637Z,5.88
2018-03-06T08:56:11.632Z,6.01
2018-03-06T08:57:11.630Z,5.91
2018-03-06T08:58:11.626Z,5.98
2018-03-06T08:59:11.625Z,6.06
2018-03-06T09:00:11.620Z,6.01
2018-03-06T09:01:11.618Z,6.26
2018-03-06T09:02:11.616Z,6.28
2018-03-06T09:03:11.612Z,6.32
2018-03-06T09:04:11.610Z,6.35
2018-03-06T09:05:11.606Z,6.32
2018-03-06T09:06:11.604Z,6.22
2018-03-06T09:07:11.603Z,6.09
2018-03-06T09:08:11.598Z,6.01
2018-03-06T09:09:11.595Z,6.09
2018-03-06T09:10:11.593Z,6.10
2018-03-06T09:11:11.591Z,6.22
2018-03-06T09:12:11.635Z,6.20
2018-03-06T09:13:11.587Z,6.31
2018-03-06T09:14:11.582Z,6.17
2018-03-06T09:15:11.580Z,6.28
2018-03-06T09:16:11.576Z,6.25
2018-03-06T09:17:11.574Z,6.07
2018-03-06T09:18:11.570Z,6.09
2018-03-06T09:19:11.569Z,6.06
2018-03-06T09:20:11.565Z,5.91
2018-03-06T09:21:11.562Z,6.06
2018-03-06T09:22:11.561Z,6.06
2018-03-06T09:23:11.556Z,6.19
2018-03-06T09:24:11.553Z,6.25
2018-03-06T09:25:11.551Z,6.36
2018-03-06T09:26:11.549Z,6.49
2018-03-06T09:27:11.546Z,6.54
2018-03-06T09:28:11.542Z,6.54
2018-03-06T09:29:11.539Z,6.72
2018-03-06T09:30:11.538Z,6.82
2018-03-06T09:31:11.535Z,6.83
2018-03-06T09:32:11.532Z,6.77
2018-03-06T09:33:11.530Z,6.80
2018-03-06T09:34:11.534Z,6.82
2018-03-06T09:35:11.524Z,6.82
2018-03-06T09:36:11.522Z,6.83
2018-03-06T09:37:11.518Z,6.75
2018-03-06T09:38:11.516Z,6.65
2018-03-06T09:39:11.521Z,6.47
2018-03-06T09:40:11.510Z,6.41
2018-03-06T09:41:11.509Z,6.39
2018-03-06T09:42:11.508Z,6.39
2018-03-06T09:43:11.502Z,6.20
2018-03-06T09:44:11.498Z,6.15
2018-03-06T09:45:11.496Z,6.05
2018-03-06T09:46:11.493Z,5.97
2018-03-06T09:47:11.491Z,5.84
2018-03-06T09:48:11.486Z,5.92
2018-03-06T09:49:11.482Z,5.91
2018-03-06T09:50:11.481Z,6.05
2018-03-06T09:51:11.477Z,6.10
2018-03-06T09:52:11.474Z,6.12
2018-03-06T09:53:11.471Z,6.07
2018-03-06T09:54:11.468Z,6.10
2018-03-06T09:55:11.465Z,6.19
2018-03-06T09:56:11.461Z,6.25
2018-03-06T09:57:11.457Z,6.36
2018-03-06T09:58:11.455Z,6.44
2018-03-06T09:59:11.452Z,6.41
2018-03-06T10:00:11.448Z,6.56
2018-03-06T10:01:11.444Z,6.56
2018-03-06T10:02:11.442Z,6.59
2018-03-06T10:03:11.440Z,6.70
2018-03-06T10:04:11.438Z,6.75
2018-03-06T10:05:11.433Z,6.82
2018-03-06T10:06:11.431Z,7.03
2018-03-06T10:07:11.427Z,7.11
2018-03-06T10:08:11.447Z,7.18
2018-03-06T10:09:11.422Z,7.19
2018-03-06T10:10:11.419Z,7.07
2018-03-06T10:11:11.415Z,7.11
2018-03-06T10:12:11.412Z,7.10
2018-03-06T10:13:11.410Z,7.01
2018-03-06T10:14:11.408Z,7.00
2018-03-06T10:15:11.405Z,6.90
2018-03-06T10:16:11.401Z,6.86
2018-03-06T10:17:11.399Z,6.72
2018-03-06T10:18:11.396Z,6.70
2018-03-06T10:19:11.394Z,6.62
2018-03-06T10:20:11.392Z,6.57
2018-03-06T10:21:11.385Z,6.60
2018-03-06T10:22:11.384Z,6.65
2018-03-06T10:23:11.382Z,6.80
2018-03-06T10:24:11.380Z,6.93
2018-03-06T10:25:11.376Z,6.96
2018-03-06T10:26:11.371Z,7.03
2018-03-06T10:27:11.371Z,7.07
2018-03-06T10:28:11.368Z,7.10
2018-03-06T10:29:11.365Z,7.18
2018-03-06T10:30:11.362Z,7.23
2018-03-06T10:31:11.388Z,7.23
2018-03-06T10:32:11.356Z,7.33
2018-03-06T10:33:11.353Z,7.36
2018-03-06T10:34:11.351Z,7.32
2018-03-06T10:35:11.348Z,7.32
2018-03-06T10:36:11.344Z,7.31
2018-03-06T10:37:11.341Z,7.37
2018-03-06T10:38:11.340Z,7.53
2018-03-06T10:39:11.339Z,7.61
2018-03-06T10:40:11.334Z,7.83
2018-03-06T10:41:11.331Z,7.95
2018-03-06T10:42:11.330Z,7.85
2018-03-06T10:43:11.327Z,7.91
2018-03-06T10:44:11.324Z,7.88
2018-03-06T10:45:11.322Z,7.83
2018-03-06T10:46:11.334Z,7.64
2018-03-06T10:47:11.324Z,7.55
2018-03-06T10:48:11.317Z,7.56
2018-03-06T10:49:11.313Z,7.69
2018-03-06T10:50:11.311Z,7.64
2018-03-06T10:51:11.311Z,7.64
2018-03-06T10:52:11.306Z,7.78
2018-03-06T10:53:11.358Z,7.81
2018-03-06T10:54:11.303Z,7.83
2018-03-06T10:55:11.337Z,7.84
2018-03-06T10:56:11.298Z,7.87
2018-03-06T10:57:11.296Z,7.87
2018-03-06T10:58:11.294Z,8.03
2018-03-06T10:59:11.293Z,8.09
2018-03-06T11:00:11.294Z,8.18
2018-03-06T11:01:11.322Z,8.20
2018-03-06T11:02:11.320Z,7.98
2018-03-06T11:03:11.369Z,7.93
2018-03-06T11:04:11.284Z,7.87
2018-03-06T11:05:11.282Z,7.85
2018-03-06T11:06:11.279Z,7.83
2018-03-06T11:07:11.278Z,7.77
2018-03-06T11:08:11.284Z,7.85
2018-03-06T11:09:11.274Z,7.83
2018-03-06T11:10:11.272Z,7.88
2018-03-06T11:11:11.271Z,7.91
2018-03-06T11:12:11.272Z,7.85
2018-03-06T11:13:11.269Z,7.66
2018-03-06T11:14:11.266Z,7.66
2018-03-06T11:15:11.265Z,7.62
2018-03-06T11:16:11.262Z,7.77
2018-03-06T11:17:11.260Z,7.66
2018-03-06T11:18:11.258Z,7.78
2018-03-06T11:19:11.257Z,7.77
2018-03-06T11:20:11.254Z,7.88
2018-03-06T11:21:11.253Z,7.93
2018-03-06T11:22:11.251Z,7.90
2018-03-06T11:23:11.249Z,7.85
2018-03-06T11:24:11.248Z,7.84
2018-03-06T11:25:11.251Z,8.06
2018-03-06T11:26:11.244Z,8.02
2018-03-06T11:27:11.241Z,8.09
2018-03-06T11:28:11.240Z,8.17
2018-03-06T11:29:11.242Z,8.28
2018-03-06T11:30:11.237Z,8.31
2018-03-06T11:31:11.233Z,8.27
2018-03-06T11:32:11.232Z,8.28
2018-03-06T11:33:11.233Z,8.32
2018-03-06T11:34:11.229Z,8.32
2018-03-06T11:35:11.227Z,8.42
2018-03-06T11:36:11.224Z,8.39
2018-03-06T11:37:11.529Z,8.38
2018-03-06T11:38:11.221Z,8.32
2018-03-06T11:39:11.219Z,8.44
2018-03-06T11:40:11.219Z,8.34
2018-03-06T11:41:11.216Z,8.39
2018-03-06T11:42:11.214Z,8.41
2018-03-06T11:43:11.214Z,8.41
2018-03-06T11:44:11.211Z,8.49
2018-03-06T11:45:11.208Z,8.45
2018-03-06T11:46:11.207Z,8.60
2018-03-06T11:47:11.206Z,8.66
2018-03-06T11:48:11.499Z,8.75
2018-03-06T11:49:11.202Z,8.87
2018-03-06T11:50:11.200Z,8.74
2018-03-06T11:51:11.200Z,8.82
2018-03-06T11:52:11.202Z,8.90
2018-03-06T11:53:11.195Z,8.93
2018-03-06T11:54:11.194Z,8.93
2018-03-06T11:55:11.192Z,8.78
2018-03-06T11:56:11.190Z,8.78
2018-03-06T11:57:11.194Z,8.79
2018-03-06T11:58:11.187Z,8.64
2018-03-06T11:59:11.187Z,8.68
2018-03-06T12:00:11.183Z,8.78
2018-03-06T12:01:11.182Z,8.92
2018-03-06T12:02:11.181Z,8.93
2018-03-06T12:03:11.180Z,9.08
2018-03-06T12:04:11.177Z,9.11
2018-03-06T12:05:11.176Z,9.16
2018-03-06T12:06:11.176Z,9.31
2018-03-06T12:07:11.266Z,9.44
2018-03-06T12:08:11.170Z,9.49
2018-03-06T12:09:11.170Z,9.63
2018-03-06T12:10:11.169Z,9.66
2018-03-06T12:11:11.166Z,9.66
2018-03-06T12:12:11.170Z,9.76
2018-03-06T12:13:11.164Z,9.72
2018-03-06T12:14:11.163Z,9.51
2018-03-06T12:15:11.162Z,9.49
2018-03-06T12:16:11.160Z,9.37
2018-03-06T12:17:11.160Z,9.37
2018-03-06T12:18:11.158Z,9.34
2018-03-06T12:19:11.156Z,9.33
2018-03-06T12:20:11.154Z,9.27
2018-03-06T12:21:11.154Z,9.27
2018-03-06T12:22:11.152Z,9.29
2018-03-06T12:23:11.151Z,9.29
2018-03-06T12:24:11.148Z,9.40
2018-03-06T12:25:11.148Z,9.44
2018-03-06T12:26:11.146Z,9.49
2018-03-06T12:27:11.145Z,9.44
2018-03-06T12:28:11.143Z,9.34
2018-03-06T12:29:11.141Z,9.36
2018-03-06T12:30:11.140Z,9.34
2018-03-06T12:31:11.141Z,9.36
2018-03-06T12:32:11.137Z,9.44
2018-03-06T12:33:11.135Z,9.48
2018-03-06T12:34:11.138Z,9.48
2018-03-06T12:35:11.134Z,9.54
2018-03-06T12:36:11.132Z,9.51
2018-03-06T12:37:11.130Z,9.52
2018-03-06T12:38:11.133Z,9.48
2018-03-06T12:39:11.128Z,9.52
2018-03-06T12:40:11.126Z,9.59
2018-03-06T12:41:11.124Z,9.49
2018-03-06T12:42:11.124Z,9.47
2018-03-06T12:43:11.122Z,9.45
2018-03-06T12:44:11.122Z,9.42
2018-03-06T12:45:11.120Z,9.48
2018-03-06T12:46:11.118Z,9.47
2018-03-06T12:47:11.384Z,9.39
2018-03-06T12:48:11.114Z,9.39
2018-03-06T12:49:11.113Z,9.44
2018-03-06T12:50:11.112Z,9.39
2018-03-06T12:51:11.110Z,9.45
2018-03-06T12:52:11.108Z,9.48
2018-03-06T12:53:11.107Z,9.44
2018-03-06T12:54:11.105Z,9.37
2018-03-06T12:55:11.103Z,9.40
2018-03-06T12:56:11.101Z,9.29
2018-03-06T12:57:11.100Z,9.29
2018-03-06T12:58:11.098Z,9.29
2018-03-06T12:59:11.100Z,9.11
2018-03-06T13:00:11.095Z,9.11
2018-03-06T13:01:11.095Z,9.00
2018-03-06T13:02:11.091Z,9.08
2018-03-06T13:03:11.090Z,9.02
2018-03-06T13:04:11.086Z,9.00
2018-03-06T13:05:11.090Z,8.99
2018-03-06T13:06:11.086Z,9.11
2018-03-06T13:07:11.121Z,8.97
2018-03-06T13:08:11.080Z,9.05
2018-03-06T13:09:11.078Z,9.05
2018-03-06T13:10:11.074Z,9.03
2018-03-06T13:11:11.073Z,9.11
2018-03-06T13:12:11.071Z,9.03
2018-03-06T13:13:11.069Z,9.11
2018-03-06T13:14:11.065Z,9.18
2018-03-06T13:15:11.064Z,9.19
2018-03-06T13:16:11.061Z,9.24
2018-03-06T13:17:11.061Z,9.16
2018-03-06T13:18:11.061Z,9.21